Roanoke, Illinois
Current Conditions -  °F | °C
As of 2:15 AM on Monday 26 Jan 2015 (Local Time) from KC75 Reporting Station
Clear Clear  
Wind Chill:   Ceiling: Unl
Heat Index: 19°   Visibility: 10mi
Dew Point: 13°   Wind: 8mph
Humidity: 79%   Direction: 340°NNW
Pressure: 30.03"   Gusts: NA
Location:  40.8°N, 89.2°W
Report Text: KC75 260815Z AUTO 34007KT 10SM CLR M07/M10 A3003 RMK AO2 T10751105
Loading
Personal Weather Stations






























Interactive Weather Map New forecast layout! Learn more

10-Day Weather Forecast

Advertisements
Track Severe Weather on mobile